Geffen, Netherlands
Current Conditions -  °F | °C
As of 8:25 AM on Saturday 25 Oct 2014 (Local Time) from EHVK Reporting Station
Haze Haze  
Wind Chill: 54°   Ceiling: 300
Heat Index: 54°   Visibility: 1.4mi
Dew Point: 54°   Wind: 8mph
Humidity: 100%   Direction: 210°SSW
Pressure: 30"   Gusts: NA
Location:  51.74°N, 5.46°E
Report Text: EHVK 250625Z AUTO 21007KT 2300 BR OVC003 12/12 Q1016 YLO
Loading
Personal Weather Stations






























Interactive Weather Map
Tropical Storm Tracking
New forecast layout! Learn more

10-Day Weather Forecast

Advertisements
Track Severe Weather on mobile